Jonesboro, Illinois
Current Conditions -  °F | °C
As of 10:53 AM on Saturday 25 Oct 2014 (Local Time) from KCGI Reporting Station
Clear Clear  
Wind Chill: 69°   Ceiling: Unl
Heat Index: 69°   Visibility: 8mi
Dew Point: 60°   Wind: 5mph
Humidity: 73%   Direction: 290°WNW
Pressure: 30.05"   Gusts: NA
Location:  37.45°N, 89.27°W
Report Text: KCGI 251553Z 29004KT 8SM CLR 21/16 A3005 RMK AO2 SLP175 T02060156
Loading
Personal Weather Stations






























Interactive Weather Map
Tropical Storm Tracking
New forecast layout! Learn more

10-Day Weather Forecast

Advertisements
Track Severe Weather on mobile